createdAt,value
2018-12-01T00:01:21.920Z,2.50
2018-12-01T00:03:55.482Z,2.80
2018-12-01T00:06:29.168Z,2.80
2018-12-01T00:09:02.896Z,2.47
2018-12-01T00:11:36.517Z,2.12
2018-12-01T00:14:11.044Z,2.00
2018-12-01T00:16:44.730Z,2.67
2018-12-01T00:19:19.154Z,2.80
2018-12-01T00:21:52.736Z,2.37
2018-12-01T00:24:26.551Z,2.62
2018-12-01T00:27:00.880Z,3.12
2018-12-01T00:29:34.581Z,3.12
2018-12-01T00:32:08.380Z,2.42
2018-12-01T00:34:42.673Z,2.55
2018-12-01T00:37:16.227Z,2.00
2018-12-01T00:39:49.831Z,2.00
2018-12-01T00:42:23.508Z,1.90
2018-12-01T00:44:57.139Z,3.22
2018-12-01T00:47:30.674Z,2.03
2018-12-01T00:50:04.510Z,2.72
2018-12-01T00:52:38.335Z,2.53
2018-12-01T00:55:11.906Z,2.22
2018-12-01T00:57:45.534Z,2.78
2018-12-01T01:00:19.200Z,2.35
2018-12-01T01:02:52.892Z,2.20
2018-12-01T01:05:27.456Z,1.70
2018-12-01T01:08:01.180Z,2.15
2018-12-01T01:10:34.820Z,2.17
2018-12-01T01:13:08.511Z,2.47
2018-12-01T01:15:42.058Z,2.80
2018-12-01T01:18:15.695Z,2.28
2018-12-01T01:20:49.451Z,2.53
2018-12-01T01:23:23.001Z,3.40
2018-12-01T01:25:56.612Z,3.30
2018-12-01T01:28:30.366Z,3.55
2018-12-01T01:31:04.091Z,3.17
2018-12-01T01:33:37.663Z,2.60
2018-12-01T01:36:11.293Z,2.70
2018-12-01T01:38:45.788Z,2.60
2018-12-01T01:41:19.524Z,2.62
2018-12-01T01:43:53.195Z,4.95
2018-12-01T01:46:27.642Z,2.60
2018-12-01T01:49:01.519Z,2.72
2018-12-01T01:51:35.236Z,3.30
2018-12-01T01:54:08.985Z,3.42
2018-12-01T01:56:42.979Z,3.50
2018-12-01T01:59:16.627Z,3.15
2018-12-01T02:01:50.329Z,3.10
2018-12-01T02:04:24.068Z,2.47
2018-12-01T02:06:57.652Z,2.50
2018-12-01T02:09:31.752Z,2.72
2018-12-01T02:12:05.589Z,3.17
2018-12-01T02:14:39.406Z,3.20
2018-12-01T02:17:13.931Z,3.05
2018-12-01T02:19:47.748Z,3.17
2018-12-01T02:22:21.528Z,3.35
2018-12-01T02:24:55.823Z,3.85
2018-12-01T02:27:29.535Z,3.20
2018-12-01T02:30:03.824Z,4.00
2018-12-01T02:32:38.163Z,2.80
2018-12-01T02:35:11.787Z,3.25
2018-12-01T02:37:46.338Z,3.30
2018-12-01T02:40:19.973Z,3.60
2018-12-01T02:42:53.716Z,3.15
2018-12-01T02:45:39.238Z,3.17
2018-12-01T02:48:12.767Z,2.70
2018-12-01T02:50:46.341Z,2.90
2018-12-01T02:53:20.005Z,3.03
2018-12-01T02:55:53.816Z,3.15
2018-12-01T02:58:28.295Z,3.65
2018-12-01T03:01:01.849Z,3.58
2018-12-01T03:03:35.630Z,2.90
2018-12-01T03:06:09.952Z,2.70
2018-12-01T03:08:43.578Z,3.33
2018-12-01T03:11:17.375Z,2.47
2018-12-01T03:13:51.078Z,2.20
2018-12-01T03:16:24.857Z,2.08
2018-12-01T03:18:58.443Z,1.90
2018-12-01T03:21:32.148Z,2.45
2018-12-01T03:24:05.995Z,2.80
2018-12-01T03:26:39.630Z,2.85
2018-12-01T03:29:13.287Z,3.12
2018-12-01T03:31:46.862Z,2.45
2018-12-01T03:34:21.413Z,2.60
2018-12-01T03:36:55.053Z,3.05
2018-12-01T03:39:29.753Z,2.40
2018-12-01T03:42:03.478Z,2.35
2018-12-01T03:44:37.089Z,2.70
2018-12-01T03:47:10.671Z,6.10
2018-12-01T03:49:44.352Z,3.37
2018-12-01T03:52:18.152Z,3.40
2018-12-01T03:54:51.735Z,3.10
2018-12-01T03:57:25.283Z,3.35
2018-12-01T03:59:58.931Z,3.20
2018-12-01T04:02:32.682Z,2.90
2018-12-01T04:05:07.292Z,2.80
2018-12-01T04:07:40.908Z,3.37
2018-12-01T04:10:14.515Z,3.67
2018-12-01T04:12:48.220Z,3.90
2018-12-01T04:15:21.995Z,3.50
2018-12-01T04:17:55.572Z,3.50
2018-12-01T04:20:29.225Z,2.95
2018-12-01T04:23:02.890Z,3.22
2018-12-01T04:25:36.518Z,3.28
2018-12-01T04:28:10.084Z,3.55
2018-12-01T04:30:43.794Z,3.60
2018-12-01T04:33:17.539Z,4.20
2018-12-01T04:35:51.043Z,3.65
2018-12-01T04:38:24.620Z,3.37
2018-12-01T04:40:58.250Z,3.33
2018-12-01T04:43:31.906Z,3.33
2018-12-01T04:46:05.464Z,4.18
2018-12-01T04:48:40.105Z,3.75
2018-12-01T04:51:13.708Z,3.97
2018-12-01T04:53:48.053Z,3.20
2018-12-01T04:56:21.726Z,3.80
2018-12-01T04:58:56.090Z,4.60
2018-12-01T05:01:29.937Z,3.80
2018-12-01T05:04:03.518Z,3.70
2018-12-01T05:06:37.813Z,3.75
2018-12-01T05:09:11.320Z,4.00
2018-12-01T05:11:44.971Z,3.70
2018-12-01T05:14:18.597Z,4.07
2018-12-01T05:16:53.027Z,2.90
2018-12-01T05:19:26.786Z,3.70
2018-12-01T05:22:00.311Z,3.22
2018-12-01T05:24:34.061Z,4.28
2018-12-01T05:27:07.659Z,4.05
2018-12-01T05:29:41.236Z,4.32
2018-12-01T05:32:14.975Z,4.30
2018-12-01T05:34:48.722Z,5.37
2018-12-01T05:37:22.598Z,3.62
2018-12-01T05:39:57.342Z,4.35
2018-12-01T05:42:31.131Z,3.70
2018-12-01T05:45:04.686Z,4.50
2018-12-01T05:47:38.408Z,4.30
2018-12-01T05:50:12.905Z,5.18
2018-12-01T05:52:46.620Z,4.97
2018-12-01T05:55:20.470Z,4.53
2018-12-01T05:57:54.136Z,4.28
2018-12-01T06:00:27.837Z,4.28
2018-12-01T06:03:01.536Z,3.40
2018-12-01T06:05:35.238Z,4.68
2018-12-01T06:08:08.918Z,3.70
2018-12-01T06:10:42.649Z,3.50
2018-12-01T06:13:16.275Z,4.82
2018-12-01T06:15:50.783Z,4.03
2018-12-01T06:18:24.516Z,4.05
2018-12-01T06:20:58.143Z,5.72
2018-12-01T06:23:32.503Z,5.22
2018-12-01T06:26:06.095Z,4.85
2018-12-01T06:28:39.870Z,4.50
2018-12-01T06:31:14.421Z,4.05
2018-12-01T06:33:48.077Z,4.43
2018-12-01T06:36:21.692Z,4.10
2018-12-01T06:38:55.263Z,5.05
2018-12-01T06:41:29.753Z,4.55
2018-12-01T06:44:04.198Z,4.28
2018-12-01T06:46:37.855Z,5.37
2018-12-01T06:49:11.546Z,4.40
2018-12-01T06:51:45.136Z,5.60
2018-12-01T06:54:18.741Z,3.87
2018-12-01T06:56:53.181Z,3.70
2018-12-01T06:59:26.731Z,4.72
2018-12-01T07:02:00.277Z,3.40
2018-12-01T07:04:33.918Z,5.75
2018-12-01T07:07:08.419Z,4.30
2018-12-01T07:09:42.138Z,5.37
2018-12-01T07:12:15.965Z,4.00
2018-12-01T07:14:49.718Z,4.12
2018-12-01T07:17:23.360Z,5.37
2018-12-01T07:19:57.185Z,4.87
2018-12-01T07:22:30.807Z,4.30
2018-12-01T07:25:04.450Z,4.35
2018-12-01T07:27:38.186Z,4.22
2018-12-01T07:30:12.003Z,4.10
2018-12-01T07:32:45.688Z,3.37
2018-12-01T07:35:19.413Z,3.33
2018-12-01T07:37:53.189Z,3.60
2018-12-01T07:40:26.916Z,5.07
2018-12-01T07:43:00.631Z,5.03
2018-12-01T07:45:34.251Z,4.00
2018-12-01T07:48:07.984Z,3.50
2018-12-01T07:50:42.536Z,4.05
2018-12-01T07:53:17.488Z,3.85
2018-12-01T07:55:50.235Z,5.55
2018-12-01T07:58:23.956Z,4.85
2018-12-01T08:00:57.644Z,5.45
2018-12-01T08:03:31.320Z,5.68
2018-12-01T08:06:05.202Z,4.55
2018-12-01T08:08:39.001Z,5.45
2018-12-01T08:11:13.418Z,4.68
2018-12-01T08:13:48.002Z,4.75
2018-12-01T08:16:21.682Z,5.62
2018-12-01T08:18:55.428Z,5.28
2018-12-01T08:21:29.909Z,5.12
2018-12-01T08:24:04.504Z,5.03
2018-12-01T08:26:38.214Z,5.30
2018-12-01T08:29:11.842Z,4.53
2018-12-01T08:31:45.716Z,5.97
2018-12-01T08:34:19.439Z,3.95
2018-12-01T08:36:54.301Z,3.90
2018-12-01T08:39:28.058Z,3.85
2018-12-01T08:42:01.893Z,3.58
2018-12-01T08:44:35.720Z,3.58
2018-12-01T08:47:09.510Z,3.42
2018-12-01T08:49:44.477Z,2.25
2018-12-01T08:52:17.134Z,2.10
2018-12-01T08:54:51.508Z,2.60
2018-12-01T08:57:25.295Z,2.78
2018-12-01T08:59:59.054Z,3.00
2018-12-01T09:02:32.753Z,2.75
2018-12-01T09:05:06.556Z,2.35
2018-12-01T09:07:40.284Z,2.62
2018-12-01T09:10:14.084Z,3.22
2018-12-01T09:12:47.692Z,3.30
2018-12-01T09:15:21.468Z,2.83
2018-12-01T09:17:55.082Z,2.40
2018-12-01T09:20:28.756Z,3.70
2018-12-01T09:23:02.573Z,3.85
2018-12-01T09:25:36.186Z,3.03
2018-12-01T09:28:09.843Z,4.03
2018-12-01T09:30:43.453Z,2.83
2018-12-01T09:33:17.172Z,3.62
2018-12-01T09:35:50.730Z,2.33
2018-12-01T09:38:24.441Z,2.80
2018-12-01T09:40:58.235Z,3.30
2018-12-01T09:43:31.976Z,3.37
2018-12-01T09:46:05.684Z,2.28
2018-12-01T09:48:39.360Z,2.78
2018-12-01T09:51:13.944Z,2.50
2018-12-01T09:53:47.619Z,2.28
2018-12-01T09:56:21.457Z,3.05
2018-12-01T09:58:55.153Z,2.72
2018-12-01T10:01:28.893Z,2.53
2018-12-01T10:04:02.687Z,2.20
2018-12-01T10:06:36.401Z,2.50
2018-12-01T10:09:10.130Z,2.70
2018-12-01T10:11:44.632Z,3.33
2018-12-01T10:14:18.495Z,2.78
2018-12-01T10:16:52.276Z,1.90
2018-12-01T10:19:26.031Z,2.20
2018-12-01T10:21:59.793Z,2.22
2018-12-01T10:24:33.649Z,2.15
2018-12-01T10:27:07.355Z,2.25
2018-12-01T10:29:41.145Z,2.00
2018-12-01T10:32:14.868Z,2.20
2018-12-01T10:34:48.746Z,1.62
2018-12-01T10:37:22.565Z,1.90
2018-12-01T10:39:56.423Z,2.60
2018-12-01T10:42:31.051Z,1.87
2018-12-01T10:45:04.803Z,1.75
2018-12-01T10:47:38.498Z,2.45
2018-12-01T10:50:12.280Z,1.25
2018-12-01T10:52:46.055Z,3.03
2018-12-01T10:55:19.908Z,2.42
2018-12-01T10:57:53.479Z,2.03
2018-12-01T11:00:27.322Z,1.83
2018-12-01T11:03:01.745Z,1.80
2018-12-01T11:05:36.223Z,1.90
2018-12-01T11:08:09.919Z,2.17
2018-12-01T11:10:43.801Z,2.03
2018-12-01T11:13:17.613Z,1.62
2018-12-01T11:15:51.429Z,1.80
2018-12-01T11:18:26.074Z,2.08
2018-12-01T11:20:59.962Z,2.33
2018-12-01T11:23:34.353Z,1.90
2018-12-01T11:26:08.228Z,1.85
2018-12-01T11:28:41.815Z,1.40
2018-12-01T11:31:15.418Z,1.77
2018-12-01T11:33:49.249Z,1.67
2018-12-01T11:36:22.967Z,1.45
2018-12-01T11:38:56.731Z,1.67
2018-12-01T11:41:31.060Z,1.77
2018-12-01T11:44:04.784Z,1.70
2018-12-01T11:46:38.597Z,2.30
2018-12-01T11:49:12.269Z,1.85
2018-12-01T11:51:46.107Z,2.50
2018-12-01T11:54:19.860Z,2.22
2018-12-01T11:56:53.691Z,2.28
2018-12-01T11:59:28.232Z,1.80
2018-12-01T12:02:02.009Z,1.85
2018-12-01T12:04:35.746Z,1.92
2018-12-01T12:07:09.500Z,2.20
2018-12-01T12:09:43.367Z,2.25
2018-12-01T12:12:17.760Z,2.33
2018-12-01T12:14:52.311Z,2.00
2018-12-01T12:17:25.792Z,2.00
2018-12-01T12:19:59.564Z,2.65
2018-12-01T12:22:34.114Z,2.33
2018-12-01T12:25:07.900Z,2.78
2018-12-01T12:27:41.580Z,1.90
2018-12-01T12:30:15.320Z,2.22
2018-12-01T12:32:49.141Z,2.58
2018-12-01T12:35:22.955Z,3.37
2018-12-01T12:37:56.732Z,2.03
2018-12-01T12:40:31.378Z,2.15
2018-12-01T12:43:05.834Z,1.83
2018-12-01T12:45:39.471Z,2.30
2018-12-01T12:48:13.236Z,9.68
2018-12-01T12:50:52.983Z,3.08
2018-12-01T12:53:21.369Z,2.22
2018-12-01T12:55:55.063Z,2.55
2018-12-01T12:58:28.799Z,2.55
2018-12-01T13:01:02.515Z,1.85
2018-12-01T13:03:36.251Z,2.05
2018-12-01T13:06:10.086Z,2.25
2018-12-01T13:08:43.935Z,2.00
2018-12-01T13:11:17.721Z,5.12
2018-12-01T13:13:51.420Z,1.33
2018-12-01T13:16:25.798Z,2.92
2018-12-01T13:18:59.506Z,1.35
2018-12-01T13:21:33.198Z,2.30
2018-12-01T13:24:07.012Z,1.80
2018-12-01T13:26:40.834Z,2.65
2018-12-01T13:29:14.726Z,1.73
2018-12-01T13:31:48.295Z,2.42
2018-12-01T13:34:22.082Z,2.00
2018-12-01T13:36:56.676Z,2.45
2018-12-01T13:39:30.412Z,2.10
2018-12-01T13:42:04.229Z,2.15
2018-12-01T13:44:38.032Z,2.70
2018-12-01T13:47:11.949Z,2.15
2018-12-01T13:49:46.461Z,2.47
2018-12-01T13:52:20.256Z,2.90
2018-12-01T13:54:54.689Z,2.25
2018-12-01T13:57:29.309Z,3.33
2018-12-01T14:00:03.067Z,2.45
2018-12-01T14:02:37.749Z,2.45
2018-12-01T14:05:11.583Z,2.70
2018-12-01T14:07:45.343Z,2.80
2018-12-01T14:10:19.792Z,2.85
2018-12-01T14:12:53.412Z,2.42
2018-12-01T14:15:27.122Z,2.85
2018-12-01T14:18:01.023Z,3.95
2018-12-01T14:20:34.799Z,2.55
2018-12-01T14:23:08.584Z,2.53
2018-12-01T14:25:42.273Z,2.75
2018-12-01T14:28:15.855Z,2.75
2018-12-01T14:30:50.231Z,2.95
2018-12-01T14:33:24.069Z,2.72
2018-12-01T14:35:57.895Z,2.60
2018-12-01T14:38:31.560Z,1.75
2018-12-01T14:41:05.400Z,2.35
2018-12-01T14:43:39.117Z,1.95
2018-12-01T14:46:12.902Z,2.25
2018-12-01T14:48:46.703Z,2.05
2018-12-01T14:51:20.504Z,2.33
2018-12-01T14:53:54.200Z,4.65
2018-12-01T14:56:28.048Z,2.97
2018-12-01T14:59:01.871Z,3.70
2018-12-01T15:01:35.529Z,1.42
2018-12-01T15:04:09.306Z,2.33
2018-12-01T15:06:43.105Z,2.30
2018-12-01T15:09:16.759Z,1.95
2018-12-01T15:11:50.550Z,2.90
2018-12-01T15:14:24.292Z,2.08
2018-12-01T15:16:58.744Z,2.15
2018-12-01T15:19:32.511Z,2.95
2018-12-01T15:22:06.254Z,2.10
2018-12-01T15:24:40.109Z,2.40
2018-12-01T15:27:14.699Z,2.15
2018-12-01T15:29:48.593Z,2.08
2018-12-01T15:32:23.022Z,2.60
2018-12-01T15:34:56.832Z,2.50
2018-12-01T15:37:30.677Z,2.17
2018-12-01T15:40:05.275Z,2.75
2018-12-01T15:42:38.995Z,2.80
2018-12-01T15:45:12.888Z,2.60
2018-12-01T15:47:46.710Z,3.12
2018-12-01T15:50:20.480Z,2.40
2018-12-01T15:52:54.266Z,2.80
2018-12-01T15:55:28.903Z,2.58
2018-12-01T15:58:02.615Z,2.55
2018-12-01T16:00:37.157Z,2.90
2018-12-01T16:03:10.795Z,2.87
2018-12-01T16:05:44.487Z,2.80
2018-12-01T16:08:18.672Z,2.83
2018-12-01T16:10:51.951Z,3.65
2018-12-01T16:13:25.790Z,4.22
2018-12-01T16:15:59.563Z,3.60
2018-12-01T16:18:33.302Z,2.92
2018-12-01T16:21:07.210Z,3.37
2018-12-01T16:23:41.603Z,3.55
2018-12-01T16:26:16.002Z,4.10
2018-12-01T16:28:49.700Z,3.42
2018-12-01T16:31:23.355Z,3.20
2018-12-01T16:33:57.004Z,2.40
2018-12-01T16:36:30.585Z,3.20
2018-12-01T16:39:04.318Z,2.80
2018-12-01T16:41:37.955Z,2.53
2018-12-01T16:44:12.408Z,4.10
2018-12-01T16:46:46.289Z,2.58
2018-12-01T16:49:20.972Z,2.60
2018-12-01T16:51:54.806Z,2.40
2018-12-01T16:54:29.343Z,2.40
2018-12-01T16:57:03.870Z,2.10
2018-12-01T16:59:37.427Z,2.55
2018-12-01T17:02:11.308Z,3.47
2018-12-01T17:04:45.093Z,2.83
2018-12-01T17:07:18.706Z,2.62
2018-12-01T17:09:52.357Z,2.28
2018-12-01T17:12:26.197Z,1.95
2018-12-01T17:15:00.747Z,2.08
2018-12-01T17:17:34.531Z,3.58
2018-12-01T17:20:08.272Z,4.03
2018-12-01T17:22:41.869Z,2.70
2018-12-01T17:25:15.673Z,2.90
2018-12-01T17:27:49.298Z,3.10
2018-12-01T17:30:22.958Z,2.08
2018-12-01T17:32:56.732Z,2.28
2018-12-01T17:35:30.646Z,2.58
2018-12-01T17:38:04.362Z,2.47
2018-12-01T17:40:38.287Z,2.28
2018-12-01T17:43:11.969Z,2.47
2018-12-01T17:45:45.801Z,2.85
2018-12-01T17:48:19.524Z,2.50
2018-12-01T17:50:53.103Z,2.30
2018-12-01T17:53:26.867Z,2.47
2018-12-01T17:56:00.654Z,2.35
2018-12-01T17:58:34.337Z,2.45
2018-12-01T18:01:08.996Z,3.12
2018-12-01T18:03:42.532Z,2.55
2018-12-01T18:06:16.889Z,2.92
2018-12-01T18:08:50.566Z,2.50
2018-12-01T18:11:29.419Z,2.33
2018-12-01T18:13:58.028Z,1.87
2018-12-01T18:16:31.765Z,3.12
2018-12-01T18:19:05.401Z,2.35
2018-12-01T18:21:39.033Z,3.20
2018-12-01T18:24:12.680Z,2.90
2018-12-01T18:26:46.319Z,2.92
2018-12-01T18:29:20.904Z,2.85
2018-12-01T18:31:54.685Z,2.97
2018-12-01T18:34:28.497Z,2.55
2018-12-01T18:37:02.210Z,3.00
2018-12-01T18:39:35.976Z,2.28
2018-12-01T18:42:09.785Z,2.80
2018-12-01T18:44:43.550Z,3.35
2018-12-01T18:47:18.125Z,3.55
2018-12-01T18:49:51.929Z,2.45
2018-12-01T18:52:25.756Z,3.00
2018-12-01T18:55:00.154Z,3.65
2018-12-01T18:57:33.756Z,3.22
2018-12-01T19:00:07.527Z,2.75
2018-12-01T19:02:41.190Z,3.17
2018-12-01T19:05:14.849Z,3.50
2018-12-01T19:07:48.469Z,3.10
2018-12-01T19:10:22.355Z,2.40
2018-12-01T19:12:56.897Z,4.60
2018-12-01T19:15:30.608Z,5.32
2018-12-01T19:18:04.495Z,3.10
2018-12-01T19:20:38.373Z,4.07
2018-12-01T19:23:12.114Z,3.60
2018-12-01T19:25:45.958Z,5.05
2018-12-01T19:28:19.709Z,4.45
2018-12-01T19:30:53.450Z,3.50
2018-12-01T19:33:27.133Z,4.25
2018-12-01T19:36:00.823Z,3.60
2018-12-01T19:38:34.597Z,3.60
2018-12-01T19:41:08.270Z,5.60
2018-12-01T19:43:42.078Z,2.80
2018-12-01T19:46:15.736Z,3.97
2018-12-01T19:48:49.562Z,3.55
2018-12-01T19:51:23.253Z,3.40
2018-12-01T19:53:57.057Z,3.20
2018-12-01T19:56:30.711Z,4.00
2018-12-01T19:59:04.431Z,3.42
2018-12-01T20:01:38.093Z,3.53
2018-12-01T20:04:12.527Z,3.47
2018-12-01T20:06:46.226Z,3.08
2018-12-01T20:09:20.484Z,3.70
2018-12-01T20:11:54.275Z,3.30
2018-12-01T20:14:27.981Z,3.15
2018-12-01T20:17:01.605Z,3.20
2018-12-01T20:19:35.240Z,4.25
2018-12-01T20:22:08.920Z,3.53
2018-12-01T20:24:42.749Z,4.05
2018-12-01T20:27:16.394Z,3.10
2018-12-01T20:29:50.854Z,3.47
2018-12-01T20:32:24.576Z,3.95
2018-12-01T20:34:59.325Z,4.00
2018-12-01T20:37:33.073Z,4.15
2018-12-01T20:40:06.739Z,4.55
2018-12-01T20:42:41.158Z,5.10
2018-12-01T20:45:15.546Z,4.50
2018-12-01T20:47:49.136Z,5.90
2018-12-01T20:50:23.631Z,7.15
2018-12-01T20:52:57.448Z,6.50
2018-12-01T20:55:31.231Z,6.10
2018-12-01T20:58:04.989Z,5.05
2018-12-01T21:00:38.739Z,5.75
2018-12-01T21:03:12.469Z,6.80
2018-12-01T21:05:46.244Z,6.05
2018-12-01T21:08:19.996Z,6.57
2018-12-01T21:10:53.776Z,6.43
2018-12-01T21:13:27.552Z,7.00
2018-12-01T21:16:01.225Z,5.07
2018-12-01T21:18:35.055Z,5.28
2018-12-01T21:21:08.783Z,6.05
2018-12-01T21:23:42.440Z,6.85
2018-12-01T21:26:16.877Z,4.82
2018-12-01T21:28:50.705Z,5.40
2018-12-01T21:31:24.488Z,5.20
2018-12-01T21:33:58.224Z,4.65
2018-12-01T21:36:32.104Z,3.45
2018-12-01T21:39:06.715Z,3.10
2018-12-01T21:41:40.411Z,2.70
2018-12-01T21:44:14.276Z,2.75
2018-12-01T21:46:48.027Z,3.10
2018-12-01T21:49:21.800Z,3.20
2018-12-01T21:51:55.517Z,3.17
2018-12-01T21:54:29.453Z,3.45
2018-12-01T21:57:03.182Z,2.65
2018-12-01T21:59:36.929Z,3.42
2018-12-01T22:02:10.693Z,3.72
2018-12-01T22:04:44.402Z,2.90
2018-12-01T22:07:18.183Z,3.67
2018-12-01T22:09:52.817Z,3.05
2018-12-01T22:12:26.633Z,4.65
2018-12-01T22:15:00.479Z,3.25
2018-12-01T22:17:34.231Z,4.15
2018-12-01T22:20:08.087Z,4.15
2018-12-01T22:22:42.091Z,4.55
2018-12-01T22:25:15.840Z,3.42
2018-12-01T22:27:49.604Z,3.90
2018-12-01T22:30:23.520Z,3.58
2018-12-01T22:32:57.288Z,3.00
2018-12-01T22:35:30.929Z,4.70
2018-12-01T22:38:04.621Z,3.50
2018-12-01T22:40:38.345Z,4.87
2018-12-01T22:43:13.041Z,3.60
2018-12-01T22:45:46.654Z,3.70
2018-12-01T22:48:20.328Z,4.10
2018-12-01T22:50:53.883Z,3.87
2018-12-01T22:53:27.463Z,3.85
2018-12-01T22:56:01.228Z,4.07
2018-12-01T22:58:35.718Z,4.60
2018-12-01T23:01:09.481Z,4.97
2018-12-01T23:03:43.178Z,5.50
2018-12-01T23:06:16.810Z,3.92
2018-12-01T23:08:50.637Z,4.85
2018-12-01T23:11:24.170Z,5.65
2018-12-01T23:13:57.860Z,5.45
2018-12-01T23:16:31.487Z,5.00
2018-12-01T23:19:06.045Z,5.78
2018-12-01T23:21:39.897Z,4.78
2018-12-01T23:24:13.721Z,5.30
2018-12-01T23:26:47.481Z,5.00
2018-12-01T23:29:21.284Z,6.25
2018-12-01T23:31:55.028Z,5.65
2018-12-01T23:34:29.644Z,4.82
2018-12-01T23:37:04.208Z,3.03
2018-12-01T23:39:37.780Z,5.45
2018-12-01T23:42:12.280Z,5.18
2018-12-01T23:44:46.006Z,5.03
2018-12-01T23:47:19.705Z,4.60
2018-12-01T23:49:53.482Z,4.57
2018-12-01T23:52:28.146Z,4.57
2018-12-01T23:55:01.889Z,4.35
2018-12-01T23:57:35.701Z,3.55
